Time;durP1;ratioP1;P1;durP2;ratioP2;P2;SDS_P1;SDS_P2;PMS_P1;PMS_P2;Temp;Humidity;BMP_temperature;BMP_pressure;BME280_temperature;BME280_humidity;BME280_pressure;Samples;Min_cycle;Max_cycle;Signal;HPM_P1;HPM_P2
2022/09/23 00:01:16;;;;;;;13.13;8.27;;;9.70;99.90;;;;;;5036780;28;20042;-68
2022/09/23 00:03:45;;;;;;;14.15;8.52;;;9.70;99.90;;;;;;5035678;28;20045;-68
2022/09/23 00:06:28;;;;;;;13.10;8.90;;;9.60;99.90;;;;;;5018420;28;20045;-70
2022/09/23 00:08:54;;;;;;;15.55;8.77;;;9.60;99.90;;;;;;5036222;28;20126;-69
2022/09/23 00:11:22;;;;;;;13.10;8.48;;;9.70;99.90;;;;;;5018495;28;20081;-70
2022/09/23 00:13:52;;;;;;;13.32;8.05;;;9.60;99.90;;;;;;5036219;28;20413;-70
2022/09/23 00:16:27;;;;;;;13.13;8.52;;;9.60;99.90;;;;;;5017006;28;20066;-69
2022/09/23 00:18:53;;;;;;;15.05;8.32;;;9.60;99.90;;;;;;5035815;28;20046;-69
2022/09/23 00:21:20;;;;;;;13.73;7.72;;;9.60;99.90;;;;;;5018117;28;20056;-69
2022/09/23 00:23:47;;;;;;;12.70;8.13;;;9.60;99.90;;;;;;5018214;28;20045;-69
2022/09/23 00:26:14;;;;;;;13.30;8.60;;;9.60;99.90;;;;;;5036035;28;20041;-69
2022/09/23 00:28:41;;;;;;;16.63;8.57;;;9.50;99.90;;;;;;5018236;28;20126;-67
2022/09/23 00:31:12;;;;;;;13.05;8.23;;;9.50;99.90;;;;;;5035548;28;20045;-70
2022/09/23 00:33:39;;;;;;;12.70;8.35;;;9.40;99.90;;;;;;5035800;28;20120;-70
2022/09/23 00:36:09;;;;;;;14.00;8.27;;;9.40;99.90;;;;;;5017274;28;20053;-67
2022/09/23 00:38:35;;;;;;;14.52;8.75;;;9.40;99.90;;;;;;5035730;28;20087;-69
2022/09/23 00:41:02;;;;;;;12.18;8.25;;;9.50;99.90;;;;;;5035674;28;20041;-67
2022/09/23 00:43:39;;;;;;;15.63;9.63;;;9.30;99.90;;;;;;5035647;28;20081;-70
2022/09/23 00:46:08;;;;;;;14.95;9.27;;;9.30;99.90;;;;;;5035440;28;20053;-70
2022/09/23 00:48:36;;;;;;;14.35;9.02;;;9.30;99.90;;;;;;5035410;28;20132;-69
2022/09/23 00:51:03;;;;;;;13.55;8.80;;;9.30;99.90;;;;;;5035094;28;20045;-68
2022/09/23 00:53:29;;;;;;;13.50;8.50;;;9.30;99.90;;;;;;5035319;28;20489;-70
2022/09/23 00:56:00;;;;;;;15.48;8.57;;;9.20;99.90;;;;;;5035372;28;20060;-69
2022/09/23 00:58:30;;;;;;;12.98;8.70;;;9.20;99.90;;;;;;5035093;28;20112;-69
2022/09/23 01:00:59;;;;;;;13.23;7.82;;;9.10;99.90;;;;;;5035359;28;20045;-68
2022/09/23 01:03:25;;;;;;;15.38;8.18;;;9.10;99.90;;;;;;5034826;28;20124;-69
2022/09/23 01:05:51;;;;;;;11.57;7.65;;;9.00;99.90;;;;;;5034867;28;20041;-68
2022/09/23 01:08:18;;;;;;;15.15;8.60;;;9.00;99.90;;;;;;5034980;28;20107;-69
2022/09/23 01:11:21;;;;;;;15.65;9.18;;;9.10;99.90;;;;;;5035026;28;20133;-67
2022/09/23 01:14:20;;;;;;;13.82;8.10;;;9.10;99.90;;;;;;4996231;28;20064;-69
2022/09/23 01:17:14;;;;;;;15.80;8.80;;;9.10;99.90;;;;;;5017168;28;20459;-70
2022/09/23 01:20:30;;;;;;;16.05;8.23;;;9.10;99.90;;;;;;5034943;28;20087;-69
2022/09/23 01:23:13;;;;;;;14.13;8.60;;;9.00;99.90;;;;;;4935008;29;20052;-69
2022/09/23 01:26:00;;;;;;;13.57;8.07;;;8.90;99.90;;;;;;4919627;29;20572;-70
2022/09/23 01:28:25;;;;;;;15.38;8.60;;;8.90;99.90;;;;;;4919068;29;20481;-69
2022/09/23 01:31:10;;;;;;;14.32;9.13;;;8.90;99.90;;;;;;4935444;29;20079;-69
2022/09/23 01:33:47;;;;;;;15.00;9.20;;;8.90;99.90;;;;;;4935344;29;20052;-68
2022/09/23 01:36:12;;;;;;;14.50;9.23;;;8.90;99.90;;;;;;4935046;29;20058;-69
2022/09/23 01:38:50;;;;;;;13.00;8.35;;;8.80;99.90;;;;;;4934651;29;20063;-70
2022/09/23 01:41:30;;;;;;;12.95;8.75;;;8.70;99.90;;;;;;4919358;29;20055;-69
2022/09/23 01:43:55;;;;;;;16.20;8.80;;;8.70;99.90;;;;;;4919216;29;20055;-69
2022/09/23 01:46:34;;;;;;;14.45;8.93;;;8.70;99.90;;;;;;4919315;29;20054;-70
2022/09/23 01:49:14;;;;;;;17.92;9.23;;;8.70;99.90;;;;;;4934941;29;20083;-69
2022/09/23 01:51:51;;;;;;;13.90;8.45;;;8.70;99.90;;;;;;4934953;29;20079;-69
2022/09/23 01:54:38;;;;;;;12.95;8.48;;;8.70;99.90;;;;;;4934196;29;20054;-70
2022/09/23 01:57:13;;;;;;;13.27;8.50;;;8.70;99.90;;;;;;4934943;29;20518;-71
2022/09/23 01:59:45;;;;;;;14.77;8.75;;;8.70;99.90;;;;;;5013329;28;20517;-67
2022/09/23 02:02:24;;;;;;;13.90;8.45;;;8.80;99.90;;;;;;5034386;28;20046;-69
2022/09/23 02:05:06;;;;;;;12.80;8.52;;;8.80;99.90;;;;;;5017437;28;20068;-65
2022/09/23 02:07:38;;;;;;;;;;;8.80;99.90;;;;;;5016620;28;20057;-69
2022/09/23 02:10:36;;;;;;;15.93;8.60;;;8.80;99.90;;;;;;5015592;28;19929;-70
2022/09/23 02:13:07;;;;;;;14.98;8.77;;;8.70;99.90;;;;;;4934548;29;20064;-70
2022/09/23 02:15:43;;;;;;;14.98;8.65;;;8.70;99.90;;;;;;4933783;29;20138;-70
2022/09/23 02:18:29;;;;;;;13.55;7.82;;;8.70;99.90;;;;;;4934510;29;20122;-70
2022/09/23 02:20:59;;;;;;;11.52;7.60;;;8.70;99.90;;;;;;4934483;29;20071;-70
2022/09/23 02:23:49;;;;;;;16.02;8.77;;;8.70;99.90;;;;;;4934369;29;20055;-70
2022/09/23 02:26:34;;;;;;;12.55;8.25;;;8.90;99.90;;;;;;4933855;29;20520;-68
2022/09/23 02:29:09;;;;;;;12.77;8.32;;;8.70;99.90;;;;;;4934341;29;20079;-71
2022/09/23 02:31:48;;;;;;;13.10;7.90;;;8.70;99.90;;;;;;4934364;29;20123;-72
2022/09/23 02:34:40;;;;;;;14.65;8.07;;;8.70;99.90;;;;;;4934092;29;20514;-70
2022/09/23 02:37:28;;;;;;;12.55;8.13;;;8.70;99.90;;;;;;4933893;29;20058;-70
2022/09/23 02:40:00;;;;;;;12.52;7.60;;;8.70;99.90;;;;;;4918129;29;20050;-68
2022/09/23 02:42:58;;;;;;;13.90;8.98;;;8.70;99.90;;;;;;4934072;29;20070;-71
2022/09/23 02:45:23;;;;;;;12.80;8.23;;;8.70;99.90;;;;;;4858801;29;20194;-69
2022/09/23 02:47:55;;;;;;;12.50;8.25;;;8.70;99.90;;;;;;4858731;29;20401;-68
2022/09/23 02:50:21;;;;;;;13.35;8.02;;;9.00;99.90;;;;;;4943934;29;20059;-70
2022/09/23 02:52:47;;;;;;;12.93;7.95;;;8.70;99.90;;;;;;4953034;29;20046;-70
2022/09/23 02:55:16;;;;;;;13.40;7.90;;;9.20;99.90;;;;;;4953018;29;20058;-70
2022/09/23 02:57:43;;;;;;;14.13;7.80;;;8.70;99.90;;;;;;4955634;28;20554;-71
2022/09/23 03:00:09;;;;;;;13.20;7.50;;;8.70;99.90;;;;;;4972142;28;20049;-70
2022/09/23 03:02:42;;;;;;;11.98;7.78;;;8.70;99.90;;;;;;4972034;28;20046;-70
2022/09/23 03:05:29;;;;;;;15.07;7.55;;;8.60;99.90;;;;;;4971830;28;20051;-68
2022/09/23 03:08:03;;;;;;;13.70;8.20;;;8.60;99.90;;;;;;4939825;28;20101;-68
2022/09/23 03:11:03;;;;;;;13.48;7.55;;;8.50;99.90;;;;;;4972055;28;20190;-71
2022/09/23 03:13:47;;;;;;;19.60;8.43;;;8.50;99.90;;;;;;4913722;29;20123;-70
2022/09/23 03:16:42;;;;;;;11.48;7.55;;;8.50;99.90;;;;;;4895468;29;20056;-70
2022/09/23 03:19:18;;;;;;;12.82;7.53;;;8.50;99.90;;;;;;4895381;29;20064;-68
2022/09/23 03:22:07;;;;;;;12.93;7.97;;;8.70;99.90;;;;;;4924065;29;20591;-70
2022/09/23 03:24:35;;;;;;;15.35;7.88;;;8.30;99.90;;;;;;4936112;28;20146;-69
2022/09/23 03:27:06;;;;;;;14.38;8.10;;;8.30;99.90;;;;;;4952497;28;20062;-68
2022/09/23 03:29:35;;;;;;;13.05;7.97;;;8.30;99.90;;;;;;4951897;29;20555;-70
2022/09/23 03:32:02;;;;;;;13.73;8.35;;;8.20;99.90;;;;;;4952466;29;20384;-70
2022/09/23 03:34:30;;;;;;;12.60;8.02;;;8.20;99.90;;;;;;4936267;29;20078;-70
2022/09/23 03:37:09;;;;;;;12.63;8.05;;;8.30;99.90;;;;;;4952197;28;20159;-70
2022/09/23 03:39:52;;;;;;;13.55;8.02;;;8.20;99.90;;;;;;4952267;29;20492;-69
2022/09/23 03:42:28;;;;;;;13.40;8.10;;;8.20;99.90;;;;;;4952101;29;20522;-70
2022/09/23 03:44:56;;;;;;;15.00;8.85;;;8.20;99.90;;;;;;4951791;29;20499;-70
2022/09/23 03:47:24;;;;;;;13.27;8.07;;;8.10;99.90;;;;;;4952197;29;20147;-70
2022/09/23 03:49:50;;;;;;;17.17;9.07;;;8.20;99.90;;;;;;4950015;28;20085;-70
2022/09/23 03:52:19;;;;;;;14.20;8.43;;;8.20;99.90;;;;;;5032432;28;20049;-69
2022/09/23 03:54:45;;;;;;;13.00;8.73;;;8.10;99.90;;;;;;5032381;28;20441;-69
2022/09/23 03:57:11;;;;;;;17.10;8.45;;;8.10;99.90;;;;;;5032572;28;20054;-70
2022/09/23 03:59:37;;;;;;;15.32;8.32;;;8.10;99.90;;;;;;5032064;28;20100;-69
2022/09/23 04:02:06;;;;;;;14.95;8.52;;;8.00;99.90;;;;;;5032209;28;20401;-69
2022/09/23 04:04:33;;;;;;;13.80;8.60;;;8.00;99.90;;;;;;5032496;28;20452;-70
2022/09/23 04:06:59;;;;;;;14.73;8.75;;;8.00;99.90;;;;;;5032260;28;20386;-69
2022/09/23 04:09:26;;;;;;;12.50;8.05;;;7.90;99.90;;;;;;5032343;28;20045;-70
2022/09/23 04:11:52;;;;;;;13.40;8.45;;;7.90;99.90;;;;;;5032221;28;20049;-69
2022/09/23 04:14:19;;;;;;;16.40;8.80;;;7.90;99.90;;;;;;5032201;28;20378;-70
2022/09/23 04:16:46;;;;;;;14.48;9.05;;;7.90;99.90;;;;;;5031991;28;20045;-69
2022/09/23 04:19:13;;;;;;;15.85;8.98;;;8.10;99.90;;;;;;5032114;28;20030;-70
2022/09/23 04:21:39;;;;;;;18.08;9.00;;;7.80;99.90;;;;;;5032359;28;20405;-68
2022/09/23 04:24:05;;;;;;;14.70;8.48;;;7.80;99.90;;;;;;5032141;28;20132;-70
2022/09/23 04:26:31;;;;;;;14.45;8.63;;;7.80;99.90;;;;;;5032136;28;20038;-69
2022/09/23 04:28:57;;;;;;;14.50;8.60;;;7.70;99.90;;;;;;5014423;28;20103;-69
2022/09/23 04:31:23;;;;;;;13.27;8.45;;;7.70;99.90;;;;;;5031894;28;20049;-70
2022/09/23 04:33:51;;;;;;;13.40;8.32;;;7.80;99.90;;;;;;5014601;28;20068;-69
2022/09/23 04:36:17;;;;;;;14.27;8.13;;;7.70;99.90;;;;;;5031963;28;20132;-69
2022/09/23 04:38:47;;;;;;;14.40;8.20;;;7.70;99.90;;;;;;5015473;28;20125;-69
2022/09/23 04:41:13;;;;;;;15.98;9.10;;;7.70;99.90;;;;;;5035576;28;20045;-69
2022/09/23 04:43:39;;;;;;;14.52;8.23;;;7.70;99.90;;;;;;5035481;28;20600;-69
2022/09/23 04:46:08;;;;;;;14.27;8.82;;;7.70;99.90;;;;;;5035777;28;20136;-69
2022/09/23 04:48:35;;;;;;;14.80;8.73;;;7.70;99.90;;;;;;5035222;28;20049;-70
2022/09/23 04:51:07;;;;;;;13.57;8.00;;;7.70;99.90;;;;;;5017704;28;20563;-69
2022/09/23 04:53:34;;;;;;;12.18;7.57;;;7.60;99.90;;;;;;5035433;28;20049;-70
2022/09/23 04:56:10;;;;;;;13.05;7.97;;;7.60;99.90;;;;;;5035456;28;20041;-69
2022/09/23 04:58:36;;;;;;;13.85;7.95;;;7.60;99.90;;;;;;5035253;28;20048;-68
2022/09/23 05:01:12;;;;;;;14.05;8.20;;;7.60;99.90;;;;;;5035394;28;20502;-70
2022/09/23 05:03:38;;;;;;;14.70;8.15;;;7.60;99.90;;;;;;5034625;28;20497;-69
2022/09/23 05:06:04;;;;;;;12.52;7.68;;;7.60;99.90;;;;;;5035128;28;20451;-69
2022/09/23 05:08:30;;;;;;;14.07;7.80;;;7.60;99.90;;;;;;5034714;28;20200;-70
2022/09/23 05:11:00;;;;;;;16.10;8.48;;;7.60;99.90;;;;;;5035130;28;20042;-69
2022/09/23 05:13:26;;;;;;;13.02;8.10;;;7.60;99.90;;;;;;5035225;28;20057;-70
2022/09/23 05:16:19;;;;;;;12.27;7.57;;;7.50;99.90;;;;;;5017126;28;20049;-71
2022/09/23 05:18:45;;;;;;;;;;;7.60;99.90;;;;;;5030551;28;20096;-69
2022/09/23 05:21:13;;;;;;;14.73;7.82;;;7.60;99.90;;;;;;5034608;28;20407;-68
2022/09/23 05:23:39;;;;;;;14.23;8.35;;;7.60;99.90;;;;;;5034947;28;20041;-70
2022/09/23 05:26:10;;;;;;;16.83;8.63;;;7.50;99.90;;;;;;5034724;28;20041;-67
2022/09/23 05:28:38;;;;;;;15.93;8.20;;;7.60;99.90;;;;;;5034810;28;20065;-69
2022/09/23 05:31:04;;;;;;;14.60;8.10;;;7.50;99.90;;;;;;5000722;28;20048;-70
2022/09/23 05:33:30;;;;;;;13.93;8.32;;;7.60;99.90;;;;;;5034688;28;20037;-70
2022/09/23 05:35:56;;;;;;;14.95;8.75;;;7.50;99.90;;;;;;5033913;28;20458;-70
2022/09/23 05:38:22;;;;;;;16.90;8.25;;;7.50;99.90;;;;;;5034712;28;20051;-69
2022/09/23 05:40:55;;;;;;;14.63;7.82;;;7.60;99.90;;;;;;5034609;28;20500;-73
2022/09/23 05:43:20;;;;;;;14.30;8.07;;;7.90;99.90;;;;;;5033371;28;20045;-67
2022/09/23 05:45:46;;;;;;;14.35;8.30;;;7.70;99.90;;;;;;5034415;28;20115;-68
2022/09/23 05:48:12;;;;;;;15.45;9.25;;;7.60;99.90;;;;;;5030569;28;20037;-68
2022/09/23 05:50:37;;;;;;;19.15;8.80;;;7.60;99.90;;;;;;5021433;28;20699;-69
2022/09/23 05:53:03;;;;;;;14.05;8.15;;;7.70;99.90;;;;;;5025804;28;20037;-68
2022/09/23 05:55:29;;;;;;;15.57;8.13;;;7.70;99.90;;;;;;5002023;28;20054;-70
2022/09/23 05:57:55;;;;;;;16.30;7.78;;;7.80;99.90;;;;;;5014417;28;20053;-69
2022/09/23 06:00:20;;;;;;;12.82;7.43;;;7.80;99.90;;;;;;5014444;28;20041;-69
2022/09/23 06:02:48;;;;;;;14.73;8.25;;;7.80;99.90;;;;;;5014293;28;20394;-70
2022/09/23 06:05:15;;;;;;;14.98;8.13;;;7.80;99.90;;;;;;5014010;28;20512;-71
2022/09/23 06:07:40;;;;;;;13.82;7.88;;;7.80;99.90;;;;;;5013891;28;20061;-71
2022/09/23 06:10:07;;;;;;;19.65;8.68;;;7.80;99.90;;;;;;5014408;28;20394;-68
2022/09/23 06:12:34;;;;;;;15.50;8.23;;;7.80;99.90;;;;;;5014228;28;20176;-71
2022/09/23 06:14:59;;;;;;;14.93;8.98;;;7.90;99.90;;;;;;5014231;28;20042;-70
2022/09/23 06:17:25;;;;;;;15.52;8.88;;;8.00;99.90;;;;;;5014076;28;20049;-68
2022/09/23 06:19:51;;;;;;;16.13;8.40;;;8.00;99.90;;;;;;5013864;28;20343;-69
2022/09/23 06:22:17;;;;;;;14.05;8.68;;;8.00;99.90;;;;;;5012395;28;20363;-70
2022/09/23 06:24:43;;;;;;;20.30;8.57;;;8.10;99.90;;;;;;5013915;28;20085;-69
2022/09/23 06:27:09;;;;;;;15.75;8.38;;;8.10;99.90;;;;;;5013961;28;20085;-71
2022/09/23 06:29:35;;;;;;;17.83;8.75;;;8.10;99.90;;;;;;5013933;28;20104;-70
2022/09/23 06:32:01;;;;;;;17.60;9.07;;;8.20;99.90;;;;;;5013849;28;20050;-70
2022/09/23 06:34:27;;;;;;;21.65;8.70;;;8.30;99.90;;;;;;5013514;28;20095;-69
2022/09/23 06:36:54;;;;;;;21.33;9.90;;;8.40;99.90;;;;;;5012315;28;20061;-70
2022/09/23 06:39:20;;;;;;;16.67;8.15;;;8.50;99.90;;;;;;5013333;28;20046;-70
2022/09/23 06:41:45;;;;;;;13.93;8.18;;;8.50;99.90;;;;;;5013728;28;20053;-70
2022/09/23 06:44:14;;;;;;;14.63;8.00;;;8.60;99.90;;;;;;5013528;28;20100;-71
2022/09/23 06:46:40;;;;;;;16.73;8.27;;;8.70;99.90;;;;;;5011736;28;20088;-72
2022/09/23 06:49:06;;;;;;;15.13;8.25;;;8.80;99.90;;;;;;5028176;28;21008;-70
2022/09/23 06:51:32;;;;;;;15.50;8.05;;;8.80;99.90;;;;;;5030771;28;20371;-70
2022/09/23 06:53:57;;;;;;;17.23;8.00;;;9.00;99.90;;;;;;5031167;28;20041;-70
2022/09/23 06:56:23;;;;;;;15.02;7.97;;;9.00;99.90;;;;;;5031953;28;20143;-70
2022/09/23 06:58:51;;;;;;;14.07;7.85;;;9.10;99.90;;;;;;5031161;28;20045;-69
2022/09/23 07:01:18;;;;;;;14.38;8.32;;;9.20;99.90;;;;;;5031211;28;20041;-68
2022/09/23 07:03:45;;;;;;;15.15;8.23;;;9.30;99.90;;;;;;5031330;28;20041;-71
2022/09/23 07:06:10;;;;;;;15.45;8.43;;;9.30;99.90;;;;;;5029455;28;20453;-68
2022/09/23 07:08:36;;;;;;;15.25;7.75;;;9.60;99.90;;;;;;5030767;28;20151;-70
2022/09/23 07:11:04;;;;;;;14.73;7.75;;;9.50;99.90;;;;;;5012828;28;20099;-69
2022/09/23 07:13:33;;;;;;;15.80;7.90;;;9.50;99.90;;;;;;5012439;28;20486;-69
2022/09/23 07:16:00;;;;;;;13.27;7.18;;;9.60;99.90;;;;;;5029298;28;20077;-70
2022/09/23 07:18:31;;;;;;;17.88;8.43;;;9.70;99.90;;;;;;5031222;28;20504;-70
2022/09/23 07:21:05;;;;;;;15.75;8.35;;;9.80;99.90;;;;;;5030609;28;20120;-69
2022/09/23 07:23:32;;;;;;;15.45;7.55;;;9.80;99.90;;;;;;5029822;28;20482;-68
2022/09/23 07:25:58;;;;;;;13.52;7.35;;;9.90;99.90;;;;;;5030561;28;20405;-71
2022/09/23 07:28:27;;;;;;;15.80;7.60;;;10.00;99.90;;;;;;5031674;28;20169;-67
2022/09/23 07:30:53;;;;;;;16.02;7.53;;;10.00;99.90;;;;;;5030735;28;20055;-69
2022/09/23 07:33:19;;;;;;;14.93;7.80;;;10.10;99.90;;;;;;5013423;28;20043;-71
2022/09/23 07:35:48;;;;;;;13.20;7.05;;;10.20;99.90;;;;;;5010735;28;20049;-70
2022/09/23 07:38:14;;;;;;;16.73;7.53;;;10.40;99.90;;;;;;5013297;28;20056;-69
2022/09/23 07:40:40;;;;;;;13.95;7.07;;;10.30;99.90;;;;;;5031696;28;20046;-70
2022/09/23 07:43:08;;;;;;;13.63;7.10;;;10.40;99.90;;;;;;5011845;28;20064;-71
2022/09/23 07:45:36;;;;;;;17.80;8.10;;;10.40;99.90;;;;;;5031272;28;20052;-68
2022/09/23 07:48:02;;;;;;;14.80;7.70;;;10.50;99.90;;;;;;5030924;28;20042;-69
2022/09/23 07:50:30;;;;;;;14.18;8.18;;;10.60;99.90;;;;;;5030865;28;20057;-70
2022/09/23 07:52:55;;;;;;;13.50;7.80;;;10.70;99.90;;;;;;5030511;28;20056;-71
2022/09/23 07:55:21;;;;;;;15.63;7.78;;;10.80;99.90;;;;;;5013085;28;20050;-71
2022/09/23 07:57:46;;;;;;;13.93;7.68;;;11.00;99.90;;;;;;5031112;28;20042;-70
2022/09/23 08:00:13;;;;;;;14.05;7.68;;;11.10;99.90;;;;;;5030572;28;20111;-69
2022/09/23 08:02:41;;;;;;;15.15;7.43;;;11.20;99.90;;;;;;5030866;28;20397;-70
2022/09/23 08:05:08;;;;;;;13.77;7.13;;;11.30;99.90;;;;;;5027460;28;20046;-71
2022/09/23 08:07:33;;;;;;;15.50;7.70;;;11.40;99.90;;;;;;5031031;28;20053;-72
2022/09/23 08:10:00;;;;;;;14.55;6.97;;;11.40;99.90;;;;;;5029560;28;20052;-70
2022/09/23 08:12:28;;;;;;;14.25;7.53;;;11.50;99.90;;;;;;5030075;28;20072;-70
2022/09/23 08:14:53;;;;;;;12.68;6.68;;;11.60;99.90;;;;;;5027287;28;20045;-73
2022/09/23 08:17:20;;;;;;;14.10;6.97;;;11.70;99.90;;;;;;5016086;28;20045;-74
2022/09/23 08:19:46;;;;;;;13.38;6.75;;;11.70;99.90;;;;;;5031771;28;20045;-70
2022/09/23 08:22:12;;;;;;;13.30;7.28;;;11.80;99.90;;;;;;5034764;28;20054;-68
2022/09/23 08:24:37;;;;;;;13.13;7.13;;;11.80;99.90;;;;;;5036390;28;20077;-70
2022/09/23 08:27:03;;;;;;;14.73;8.32;;;11.70;99.90;;;;;;5034631;28;20041;-71
2022/09/23 08:29:29;;;;;;;16.42;8.65;;;11.80;99.90;;;;;;5032091;28;20054;-70
2022/09/23 08:31:55;;;;;;;12.30;7.15;;;11.90;99.90;;;;;;5033895;28;20041;-71
2022/09/23 08:34:22;;;;;;;17.60;8.65;;;11.90;99.90;;;;;;5034091;28;20069;-70
2022/09/23 08:36:48;;;;;;;17.15;8.15;;;11.90;99.90;;;;;;5033836;28;20147;-71
2022/09/23 08:39:16;;;;;;;14.23;7.32;;;12.00;99.90;;;;;;5034045;28;20500;-70
2022/09/23 08:41:51;;;;;;;13.02;7.40;;;12.00;99.90;;;;;;5015241;28;20116;-69
2022/09/23 08:44:38;;;;;;;16.05;7.60;;;12.10;99.90;;;;;;5031647;28;20132;-70
2022/09/23 08:47:28;;;;;;;16.67;7.15;;;12.10;99.90;;;;;;5034574;28;20087;-70
2022/09/23 08:50:17;;;;;;;14.68;7.50;;;12.10;99.90;;;;;;5033074;28;20401;-72
2022/09/23 08:52:57;;;;;;;15.85;8.00;;;12.10;99.90;;;;;;5033094;28;20111;-71
2022/09/23 08:55:32;;;;;;;16.05;7.68;;;12.10;99.90;;;;;;5029193;28;20045;-71
2022/09/23 08:58:23;;;;;;;15.02;8.27;;;12.30;99.90;;;;;;5007151;28;20053;-69
2022/09/23 09:01:11;;;;;;;14.77;7.60;;;12.20;99.90;;;;;;5006316;28;20052;-69
2022/09/23 09:03:53;;;;;;;15.68;7.72;;;12.20;99.90;;;;;;5010275;28;20493;-71
2022/09/23 09:06:52;;;;;;;13.15;7.47;;;12.20;99.90;;;;;;5024455;28;20052;-71
2022/09/23 09:09:42;;;;;;;14.02;7.55;;;12.30;99.90;;;;;;5011214;28;20410;-71
2022/09/23 09:12:11;;;;;;;15.63;8.68;;;12.30;99.90;;;;;;5032839;28;20046;-70
2022/09/23 09:14:47;;;;;;;14.65;8.82;;;12.40;99.90;;;;;;5015436;28;20087;-72
2022/09/23 09:17:26;;;;;;;13.43;7.57;;;12.50;99.90;;;;;;5032931;28;20055;-69
2022/09/23 09:19:55;;;;;;;12.75;7.47;;;12.50;99.90;;;;;;5033541;28;20411;-71
2022/09/23 09:22:42;;;;;;;14.27;7.90;;;12.60;99.90;;;;;;5032645;28;20091;-71
2022/09/23 09:25:44;;;;;;;14.70;7.68;;;12.80;99.90;;;;;;5032883;28;20056;-72
2022/09/23 09:28:32;;;;;;;18.95;7.97;;;12.90;99.90;;;;;;4933185;29;20056;-69
2022/09/23 09:31:15;;;;;;;12.90;7.40;;;13.10;99.90;;;;;;4917841;29;20055;-71
2022/09/23 09:34:06;;;;;;;14.05;7.40;;;13.20;99.90;;;;;;4940148;29;20577;-72
2022/09/23 09:36:45;;;;;;;14.80;7.70;;;13.40;99.90;;;;;;4872473;29;20064;-72
2022/09/23 09:39:13;;;;;;;15.55;7.53;;;13.50;99.90;;;;;;4888460;29;20056;-71
2022/09/23 09:41:46;;;;;;;14.80;7.38;;;13.70;99.90;;;;;;4893494;29;20455;-71
2022/09/23 09:44:41;;;;;;;13.23;7.18;;;13.80;99.90;;;;;;4888192;29;20497;-71
2022/09/23 09:47:19;;;;;;;13.88;7.60;;;13.90;99.90;;;;;;4871742;29;20060;-70
2022/09/23 09:49:52;;;;;;;14.55;7.15;;;13.90;99.90;;;;;;4888037;29;20060;-71
2022/09/23 09:52:21;;;;;;;14.98;7.47;;;13.80;99.90;;;;;;4891091;29;20079;-71
2022/09/23 09:54:48;;;;;;;17.55;6.70;;;13.90;99.90;;;;;;4891032;29;20067;-72
2022/09/23 09:57:32;;;;;;;12.25;7.07;;;13.90;99.90;;;;;;4875084;29;20052;-69
2022/09/23 10:00:17;;;;;;;14.65;7.53;;;14.00;99.90;;;;;;4889292;29;20072;-72
2022/09/23 10:02:43;;;;;;;12.85;6.85;;;14.10;99.90;;;;;;4884835;29;20180;-71
2022/09/23 10:05:24;;;;;;;12.27;6.68;;;14.10;99.90;;;;;;4887560;29;20064;-69
2022/09/23 10:07:50;;;;;;;13.98;6.75;;;14.10;99.90;;;;;;4919602;29;20461;-72
2022/09/23 10:10:24;;;;;;;14.00;6.95;;;14.20;99.90;;;;;;4918253;29;20060;-70
2022/09/23 10:12:51;;;;;;;13.02;6.97;;;14.20;99.90;;;;;;4925013;28;20057;-72
2022/09/23 10:15:39;;;;;;;14.15;7.53;;;14.20;99.90;;;;;;5015156;28;20127;-71
2022/09/23 10:18:22;;;;;;;12.25;6.57;;;14.30;99.90;;;;;;5030951;28;20052;-73
2022/09/23 10:20:47;;;;;;;;;;;14.30;99.90;;;;;;5013082;28;20595;-69
2022/09/23 10:23:26;;;;;;;11.82;6.45;;;14.30;99.90;;;;;;5032211;28;20007;-70
2022/09/23 10:26:04;;;;;;;11.02;6.07;;;14.40;99.90;;;;;;5031300;28;20037;-72
2022/09/23 10:28:38;;;;;;;12.05;6.13;;;14.50;99.90;;;;;;5014031;28;20041;-72
2022/09/23 10:31:31;;;;;;;13.77;6.70;;;14.50;99.90;;;;;;5030556;28;20034;-73
2022/09/23 10:34:01;;;;;;;12.00;6.07;;;14.60;99.90;;;;;;5013574;28;20574;-69
2022/09/23 10:36:31;;;;;;;11.85;6.13;;;14.60;99.90;;;;;;5031198;28;20053;-68
2022/09/23 10:48:02;;;;;;;12.75;7.18;;;14.80;99.90;;;;;;5030136;28;20059;-69
2022/09/23 10:50:47;;;;;;;13.23;5.50;;;14.80;99.90;;;;;;5031161;28;20187;-71
2022/09/23 10:53:41;;;;;;;12.00;5.53;;;14.90;99.90;;;;;;5029332;28;20139;-68
2022/09/23 10:56:09;;;;;;;12.48;5.95;;;14.90;99.90;;;;;;5010575;28;20107;-69
2022/09/23 10:58:52;;;;;;;12.50;6.20;;;15.00;99.90;;;;;;5013591;28;20042;-69
2022/09/23 11:01:17;;;;;;;;;;;15.00;99.90;;;;;;4999048;28;20053;-70
2022/09/23 11:04:08;;;;;;;10.57;5.65;;;15.10;99.90;;;;;;5012669;28;19928;-71
2022/09/23 11:06:54;;;;;;;12.30;5.97;;;15.10;99.90;;;;;;5022939;28;20501;-71
2022/09/23 11:09:43;;;;;;;10.98;5.45;;;15.20;99.90;;;;;;5006158;28;20058;-71
2022/09/23 11:12:51;;;;;;;10.95;5.75;;;15.30;99.90;;;;;;5015724;28;20440;-71
2022/09/23 11:15:43;;;;;;;13.30;5.63;;;15.30;99.90;;;;;;4933445;29;20062;-72
2022/09/23 11:18:47;;;;;;;9.80;5.32;;;15.40;99.90;;;;;;4917282;29;20135;-70
2022/09/23 11:21:47;;;;;;;10.95;5.70;;;15.50;99.90;;;;;;4876294;29;20064;-72
2022/09/23 11:24:33;;;;;;;12.52;5.70;;;15.40;99.90;;;;;;4876867;29;20622;-72
2022/09/23 11:27:20;;;;;;;10.38;5.47;;;15.50;99.90;;;;;;4876835;29;20049;-72
2022/09/23 11:29:54;;;;;;;13.00;5.85;;;15.40;99.90;;;;;;4876838;29;20130;-72
2022/09/23 11:33:02;;;;;;;10.68;5.43;;;15.40;99.90;;;;;;4876731;29;20537;-72
2022/09/23 11:35:35;;;;;;;10.07;5.32;;;15.40;99.90;;;;;;4806306;29;20062;-71
2022/09/23 11:38:10;;;;;;;12.13;5.60;;;15.50;99.90;;;;;;4805910;29;20074;-71
2022/09/23 11:40:39;;;;;;;10.40;5.22;;;15.50;99.90;;;;;;4806470;29;20553;-71
2022/09/23 11:43:22;;;;;;;13.10;6.10;;;15.60;99.90;;;;;;4821716;29;20058;-68
2022/09/23 11:45:57;;;;;;;11.82;5.97;;;15.60;99.90;;;;;;4821352;29;20427;-71
2022/09/23 11:48:44;;;;;;;13.85;5.43;;;15.60;99.90;;;;;;4823582;29;20429;-71
2022/09/23 11:51:24;;;;;;;11.40;5.78;;;15.60;99.90;;;;;;4833923;29;20053;-72
2022/09/23 11:54:03;;;;;;;10.95;5.55;;;15.70;99.90;;;;;;4880032;29;20145;-72
2022/09/23 11:56:56;;;;;;;13.35;5.57;;;15.70;99.90;;;;;;4887023;29;20477;-74
2022/09/23 11:59:23;;;;;;;12.63;5.90;;;15.80;99.90;;;;;;4906097;29;20078;-73
2022/09/23 12:01:54;;;;;;;9.88;5.72;;;15.80;99.90;;;;;;4934700;29;20052;-73
2022/09/23 12:04:29;;;;;;;11.70;5.45;;;15.80;99.90;;;;;;4937642;29;20134;-74
2022/09/23 12:07:09;;;;;;;12.27;5.50;;;15.80;99.90;;;;;;4935526;29;20063;-74
2022/09/23 12:09:56;;;;;;;11.98;5.85;;;15.80;99.90;;;;;;4938801;29;20594;-74
2022/09/23 12:12:47;;;;;;;12.15;5.85;;;15.80;99.90;;;;;;5016504;28;20060;-74
2022/09/23 12:15:47;;;;;;;11.68;6.18;;;15.80;99.90;;;;;;5033279;28;20452;-74
2022/09/23 12:18:59;;;;;;;16.02;7.03;;;15.80;99.90;;;;;;5000203;28;20448;-71
2022/09/23 12:22:02;;;;;;;10.40;5.50;;;15.80;99.90;;;;;;4960568;28;20058;-72
2022/09/23 12:24:31;;;;;;;;;;;15.80;99.90;;;;;;4961314;28;20434;-72
2022/09/23 12:27:00;;;;;;;12.45;6.10;;;15.80;99.90;;;;;;4950197;28;20008;-72
2022/09/23 12:29:30;;;;;;;13.07;6.85;;;15.90;99.90;;;;;;4960118;28;20055;-73
2022/09/23 12:32:00;;;;;;;12.30;6.03;;;15.80;99.90;;;;;;4956328;28;20122;-73
2022/09/23 12:34:35;;;;;;;12.77;6.00;;;15.80;99.90;;;;;;4946194;28;20122;-73
2022/09/23 12:37:04;;;;;;;12.38;6.45;;;15.80;99.90;;;;;;4947712;28;20059;-73
2022/09/23 12:39:37;;;;;;;12.40;5.75;;;15.80;99.90;;;;;;4944002;28;20473;-73
2022/09/23 12:42:15;;;;;;;13.40;5.95;;;15.70;99.90;;;;;;4958213;28;20047;-72
2022/09/23 12:45:32;;;;;;;11.38;5.70;;;15.80;99.90;;;;;;4959811;28;20175;-73
2022/09/23 12:48:03;;;;;;;18.00;6.20;;;15.80;99.90;;;;;;4922041;29;20411;-72
2022/09/23 12:51:06;;;;;;;12.10;5.80;;;15.70;99.90;;;;;;4919913;29;20508;-76
2022/09/23 12:53:32;;;;;;;11.68;5.40;;;15.70;99.90;;;;;;4899943;29;20055;-73
2022/09/23 12:56:15;;;;;;;12.93;5.57;;;15.70;99.90;;;;;;4925556;29;20048;-73
2022/09/23 12:58:47;;;;;;;11.73;5.97;;;15.70;99.90;;;;;;4980454;28;20118;-73
2022/09/23 13:01:21;;;;;;;13.32;5.97;;;15.70;99.90;;;;;;4988863;28;20246;-75
2022/09/23 13:06:59;;;;;;;12.10;6.13;;;15.70;99.90;;;;;;4990773;28;20093;-75
2022/09/23 13:09:28;;;;;;;11.95;5.75;;;15.70;99.90;;;;;;4991169;28;20435;-76
2022/09/23 13:12:05;;;;;;;10.35;5.43;;;15.70;99.90;;;;;;4991903;28;20117;-76
2022/09/23 13:14:32;;;;;;;12.00;6.35;;;15.70;99.90;;;;;;4991835;28;20093;-79
2022/09/23 13:16:58;;;;;;;12.15;6.07;;;15.70;99.90;;;;;;4991688;28;20061;-77
2022/09/23 13:19:27;;;;;;;11.38;6.28;;;15.70;99.90;;;;;;5013735;28;20046;-76
2022/09/23 13:21:53;;;;;;;14.65;5.93;;;15.60;99.90;;;;;;5021976;28;20121;-73
2022/09/23 13:24:33;;;;;;;11.95;6.03;;;15.60;99.90;;;;;;5024835;28;20041;-73
2022/09/23 13:26:59;;;;;;;14.18;6.93;;;15.60;99.90;;;;;;5022374;28;20038;-75
2022/09/23 13:29:46;;;;;;;12.77;6.35;;;15.60;99.90;;;;;;5009031;28;20459;-78